Time,TemperatureF,DewpointF,PressureIn,WindDirection,WindDirectionDegrees,WindSpeedMPH,WindSpeedGustMPH,Humidity,HourlyPrecipIn,Conditions,Clouds,dailyrainin,SoftwareType,DateUTC
2013-02-22 00:01:00,27.0,26.0,29.72,SSE,157,1.0,2.0,94,0.00,,,0.13,,2013-02-22 07:01:00,
2013-02-22 00:11:00,26.0,25.0,29.72,SSE,157,1.0,2.0,94,0.00,,,0.13,,2013-02-22 07:11:00,
2013-02-22 00:21:00,26.0,25.0,29.72,SSE,157,1.0,2.0,94,0.00,,,0.13,,2013-02-22 07:21:00,
2013-02-22 00:31:00,26.0,25.0,29.72,SSE,157,1.0,2.0,94,0.00,,,0.13,,2013-02-22 07:31:00,
2013-02-22 00:42:00,27.0,26.0,29.72,SSE,157,2.0,2.0,94,0.00,,,0.13,,2013-02-22 07:42:00,
2013-02-22 00:51:00,27.0,26.0,29.72,SSE,157,2.0,2.0,94,0.00,,,0.13,,2013-02-22 07:51:00,
2013-02-22 01:01:00,27.0,26.0,29.72,West,270,3.0,4.0,94,0.00,,,0.13,,2013-02-22 08:01:00,
2013-02-22 01:11:00,27.0,26.0,29.72,WNW,292,1.0,2.0,94,0.00,,,0.13,,2013-02-22 08:11:00,
2013-02-22 01:21:00,27.0,26.0,29.72,WNW,292,1.0,2.0,94,0.00,,,0.13,,2013-02-22 08:21:00,
2013-02-22 01:31:00,27.0,26.0,29.72,NW,315,2.0,2.0,94,0.00,,,0.13,,2013-02-22 08:31:00,
2013-02-22 01:41:00,27.0,26.0,29.72,NW,315,2.0,2.0,94,0.00,,,0.13,,2013-02-22 08:41:00,
2013-02-22 01:52:00,27.0,26.0,29.72,NW,315,2.0,2.0,94,0.00,,,0.13,,2013-02-22 08:52:00,
2013-02-22 02:02:00,27.0,26.0,29.72,NW,315,0.0,0.0,94,0.00,,,0.13,,2013-02-22 09:02:00,
2013-02-22 02:11:00,26.0,25.0,29.72,NW,315,0.0,0.0,94,0.00,,,0.13,,2013-02-22 09:11:00,
2013-02-22 02:21:00,26.0,25.0,29.72,NW,315,0.0,0.0,94,0.00,,,0.13,,2013-02-22 09:21:00,
2013-02-22 02:31:00,26.0,25.0,29.72,NW,315,0.0,0.0,94,0.00,,,0.13,,2013-02-22 09:31:00,
2013-02-22 02:41:00,26.0,25.0,29.72,NW,315,0.0,0.0,94,0.00,,,0.13,,2013-02-22 09:41:00,
2013-02-22 02:51:00,26.0,25.0,29.72,NW,315,0.0,0.0,94,0.00,,,0.13,,2013-02-22 09:51:00,
2013-02-22 03:01:00,26.0,25.0,29.72,NW,315,0.0,0.0,94,0.00,,,0.13,,2013-02-22 10:01:00,
2013-02-22 03:11:00,26.0,25.0,29.72,NW,315,0.0,0.0,94,0.00,,,0.13,,2013-02-22 10:11:00,
2013-02-22 03:21:00,26.0,25.0,29.72,NW,315,0.0,0.0,94,0.00,,,0.13,,2013-02-22 10:21:00,
2013-02-22 03:31:00,26.0,25.0,29.72,NW,315,0.0,0.0,94,0.00,,,0.13,,2013-02-22 10:31:00,
2013-02-22 03:42:00,26.0,25.0,29.72,NNW,337,2.0,2.0,94,0.00,,,0.13,,2013-02-22 10:42:00,
2013-02-22 03:51:00,26.0,25.0,29.72,NNW,337,2.0,2.0,94,0.00,,,0.13,,2013-02-22 10:51:00,
2013-02-22 04:01:00,26.0,25.0,29.72,NNW,337,2.0,2.0,94,0.00,,,0.13,,2013-02-22 11:01:00,
2013-02-22 04:11:00,25.0,24.0,29.72,NNW,337,1.0,2.0,94,0.00,,,0.13,,2013-02-22 11:11:00,
2013-02-22 04:21:00,25.0,24.0,29.72,NNW,337,1.0,2.0,94,0.00,,,0.13,,2013-02-22 11:21:00,
2013-02-22 04:31:00,25.0,24.0,29.72,NNW,337,1.0,2.0,94,0.00,,,0.13,,2013-02-22 11:31:00,
2013-02-22 04:42:00,25.0,24.0,29.72,North,360,1.0,2.0,94,0.00,,,0.13,,2013-02-22 11:42:00,
2013-02-22 04:52:00,25.0,24.0,29.72,North,360,1.0,2.0,94,0.00,,,0.13,,2013-02-22 11:52:00,
2013-02-22 05:01:00,25.0,24.0,29.72,North,360,2.0,4.0,94,0.00,,,0.13,,2013-02-22 12:01:00,
2013-02-22 05:11:00,25.0,24.0,29.72,North,360,2.0,4.0,94,0.00,,,0.13,,2013-02-22 12:11:00,
2013-02-22 05:21:00,25.0,24.0,29.74,North,360,2.0,2.0,94,0.00,,,0.13,,2013-02-22 12:21:00,
2013-02-22 05:32:00,25.0,24.0,29.74,North,360,2.0,2.0,94,0.00,,,0.13,,2013-02-22 12:32:00,
2013-02-22 05:42:00,25.0,24.0,29.74,North,360,2.0,2.0,94,0.00,,,0.13,,2013-02-22 12:42:00,
2013-02-22 05:51:00,24.0,22.0,29.74,North,360,1.0,2.0,93,0.00,,,0.13,,2013-02-22 12:51:00,
2013-02-22 06:01:00,24.0,22.0,29.74,North,360,0.0,1.0,93,0.00,,,0.13,,2013-02-22 13:01:00,
2013-02-22 06:11:00,24.0,22.0,29.74,North,360,0.0,1.0,93,0.00,,,0.13,,2013-02-22 13:11:00,
2013-02-22 06:22:00,24.0,22.0,29.74,North,360,1.0,1.0,93,0.00,,,0.13,,2013-02-22 13:22:00,
2013-02-22 06:31:00,24.0,22.0,29.74,North,360,0.0,0.0,93,0.00,,,0.13,,2013-02-22 13:31:00,
2013-02-22 06:41:00,24.0,22.0,29.74,North,360,1.0,2.0,93,0.00,,,0.13,,2013-02-22 13:41:00,
2013-02-22 06:51:00,24.0,22.0,29.74,North,360,1.0,2.0,93,0.00,,,0.13,,2013-02-22 13:51:00,
2013-02-22 07:01:00,24.0,22.0,29.74,North,360,2.0,2.0,93,0.00,,,0.13,,2013-02-22 14:01:00,
2013-02-22 07:11:00,24.0,22.0,29.74,North,360,0.0,1.0,93,0.00,,,0.13,,2013-02-22 14:11:00,
2013-02-22 07:21:00,24.0,22.0,29.74,North,360,0.0,1.0,93,0.00,,,0.13,,2013-02-22 14:21:00,
2013-02-22 07:31:00,24.0,22.0,29.74,North,360,1.0,2.0,93,0.00,,,0.13,,2013-02-22 14:31:00,
2013-02-22 07:41:00,24.0,22.0,29.75,North,360,2.0,2.0,93,0.00,,,0.13,,2013-02-22 14:41:00,
2013-02-22 07:52:00,24.0,22.0,29.75,North,360,2.0,2.0,93,0.00,,,0.13,,2013-02-22 14:52:00,
2013-02-22 08:01:00,24.0,22.0,29.76,North,360,1.0,2.0,93,0.00,,,0.13,,2013-02-22 15:01:00,
2013-02-22 08:11:00,24.0,22.0,29.76,North,360,1.0,2.0,93,0.00,,,0.13,,2013-02-22 15:11:00,
2013-02-22 08:21:00,24.0,22.0,29.76,North,360,1.0,2.0,93,0.00,,,0.13,,2013-02-22 15:21:00,
2013-02-22 08:31:00,25.0,24.0,29.77,NNW,337,2.0,4.0,94,0.00,,,0.13,,2013-02-22 15:31:00,
2013-02-22 08:41:00,25.0,24.0,29.77,NNW,337,2.0,4.0,94,0.00,,,0.13,,2013-02-22 15:41:00,
2013-02-22 08:51:00,25.0,24.0,29.78,NW,315,5.0,6.0,94,0.00,,,0.13,,2013-02-22 15:51:00,
2013-02-22 09:01:00,25.0,24.0,29.78,NW,315,6.0,8.0,94,0.00,,,0.13,,2013-02-22 16:01:00,
2013-02-22 09:11:00,25.0,23.0,29.79,NW,315,7.0,9.0,92,0.00,,,0.13,,2013-02-22 16:11:00,
2013-02-22 09:21:00,25.0,23.0,29.79,NW,315,7.0,9.0,92,0.00,,,0.13,,2013-02-22 16:21:00,
2013-02-22 09:31:00,25.0,24.0,29.79,NW,315,4.0,5.0,94,0.00,,,0.13,,2013-02-22 16:31:00,
2013-02-22 09:41:00,25.0,24.0,29.79,NW,315,4.0,5.0,94,0.00,,,0.13,,2013-02-22 16:41:00,
2013-02-22 09:52:00,25.0,24.0,29.79,NW,315,5.0,7.0,94,0.00,,,0.13,,2013-02-22 16:52:00,
2013-02-22 10:01:00,24.0,22.0,29.79,NW,315,7.0,10.0,93,0.00,,,0.13,,2013-02-22 17:01:00,
2013-02-22 10:11:00,24.0,22.0,29.79,NW,315,5.0,7.0,93,0.00,,,0.13,,2013-02-22 17:11:00,
2013-02-22 10:21:00,24.0,22.0,29.79,NW,315,5.0,7.0,93,0.00,,,0.13,,2013-02-22 17:21:00,
2013-02-22 10:31:00,25.0,24.0,29.80,NW,315,4.0,6.0,94,0.00,,,0.13,,2013-02-22 17:31:00,
2013-02-22 10:41:00,26.0,24.0,29.81,NW,315,3.0,6.0,93,0.00,,,0.14,,2013-02-22 17:41:00,
2013-02-22 10:52:00,26.0,24.0,29.81,NW,315,3.0,6.0,93,0.00,,,0.14,,2013-02-22 17:52:00,
2013-02-22 11:01:00,25.0,24.0,29.81,NW,315,5.0,8.0,94,0.00,,,0.14,,2013-02-22 18:01:00,
2013-02-22 11:11:00,25.0,24.0,29.81,NW,315,3.0,5.0,94,0.00,,,0.11,,2013-02-22 18:11:00,
2013-02-22 11:22:00,25.0,24.0,29.81,NW,315,3.0,5.0,94,0.00,,,0.11,,2013-02-22 18:22:00,
2013-02-22 11:31:00,26.0,24.0,29.82,NW,315,4.0,8.0,93,0.00,,,0.07,,2013-02-22 18:31:00,
2013-02-22 11:41:00,26.0,24.0,29.82,NW,315,4.0,8.0,93,0.00,,,0.07,,2013-02-22 18:41:00,
2013-02-22 11:51:00,26.0,24.0,29.81,NNW,337,6.0,9.0,92,0.00,,,0.06,,2013-02-22 18:51:00,
2013-02-22 12:01:00,26.0,24.0,29.81,NW,315,2.0,3.0,91,0.00,,,0.05,,2013-02-22 19:01:00,
2013-02-22 12:11:00,26.0,23.0,29.81,NNW,337,3.0,6.0,89,0.00,,,0.05,,2013-02-22 19:11:00,
2013-02-22 12:21:00,26.0,23.0,29.81,NNW,337,3.0,6.0,89,0.00,,,0.05,,2013-02-22 19:21:00,
2013-02-22 12:31:00,27.0,23.0,29.81,North,360,4.0,6.0,85,0.00,,,0.05,,2013-02-22 19:31:00,
2013-02-22 12:41:00,27.0,23.0,29.82,NW,315,6.0,9.0,83,0.00,,,0.05,,2013-02-22 19:41:00,
2013-02-22 12:51:00,27.0,23.0,29.82,NW,315,6.0,9.0,83,0.00,,,0.05,,2013-02-22 19:51:00,
2013-02-22 13:01:00,27.0,23.0,29.81,NW,315,7.0,9.0,83,0.00,,,0.05,,2013-02-22 20:01:00,
2013-02-22 13:11:00,27.0,23.0,29.81,NW,315,7.0,9.0,83,0.00,,,0.05,,2013-02-22 20:11:00,
2013-02-22 13:21:00,27.0,21.0,29.81,NW,315,9.0,12.0,79,0.00,,,0.05,,2013-02-22 20:21:00,
2013-02-22 13:31:00,28.0,21.0,29.80,NW,315,8.0,10.0,74,0.00,,,0.05,,2013-02-22 20:31:00,
2013-02-22 13:41:00,28.0,21.0,29.80,NW,315,8.0,10.0,74,0.00,,,0.05,,2013-02-22 20:41:00,
2013-02-22 13:51:00,29.0,20.0,29.80,NW,315,10.0,12.0,69,0.00,,,0.05,,2013-02-22 20:51:00,
2013-02-22 14:01:00,30.0,21.0,29.80,NW,315,11.0,16.0,70,0.00,,,0.05,,2013-02-22 21:01:00,
2013-02-22 14:11:00,29.0,19.0,29.80,NW,315,12.0,16.0,65,0.00,,,0.05,,2013-02-22 21:11:00,
2013-02-22 14:21:00,29.0,19.0,29.80,NW,315,12.0,16.0,65,0.00,,,0.05,,2013-02-22 21:21:00,
2013-02-22 14:31:00,30.0,21.0,29.80,West,270,9.0,12.0,69,0.00,,,0.05,,2013-02-22 21:31:00,
2013-02-22 14:41:00,30.0,19.0,29.80,WNW,292,12.0,18.0,64,0.00,,,0.05,,2013-02-22 21:41:00,
2013-02-22 14:52:00,30.0,19.0,29.80,WNW,292,12.0,18.0,64,0.00,,,0.05,,2013-02-22 21:52:00,
2013-02-22 15:01:00,30.0,18.0,29.80,NW,315,12.0,16.0,61,0.00,,,0.05,,2013-02-22 22:01:00,
2013-02-22 15:11:00,30.0,18.0,29.80,NW,315,12.0,16.0,61,0.00,,,0.05,,2013-02-22 22:11:00,
2013-02-22 15:21:00,32.0,22.0,29.82,West,270,9.0,14.0,65,0.00,,,0.05,,2013-02-22 22:21:00,
2013-02-22 15:31:00,31.0,18.0,29.82,West,270,10.0,14.0,57,0.00,,,0.05,,2013-02-22 22:31:00,
2013-02-22 15:41:00,31.0,18.0,29.82,NW,315,6.0,10.0,58,0.00,,,0.05,,2013-02-22 22:41:00,
2013-02-22 15:51:00,31.0,18.0,29.82,NW,315,6.0,10.0,58,0.00,,,0.05,,2013-02-22 22:51:00,
2013-02-22 16:01:00,31.0,18.0,29.82,NW,315,7.0,11.0,57,0.00,,,0.05,,2013-02-22 23:01:00,
2013-02-22 16:11:00,32.0,17.0,29.83,NW,315,7.0,9.0,53,0.00,,,0.05,,2013-02-22 23:11:00,
2013-02-22 16:21:00,32.0,17.0,29.83,NW,315,7.0,9.0,53,0.00,,,0.05,,2013-02-22 23:21:00,
2013-02-22 16:31:00,32.0,15.0,29.83,NNW,337,5.0,9.0,50,0.00,,,0.05,,2013-02-22 23:31:00,
2013-02-22 16:41:00,32.0,15.0,29.83,NNW,337,5.0,9.0,50,0.00,,,0.05,,2013-02-22 23:41:00,
2013-02-22 16:52:00,32.0,18.0,29.84,WNW,292,8.0,12.0,56,0.00,,,0.05,,2013-02-22 23:52:00,
2013-02-22 17:01:00,32.0,19.0,29.84,WNW,292,7.0,9.0,59,0.00,,,0.05,,2013-02-23 00:01:00,
2013-02-22 17:11:00,31.0,16.0,29.84,West,270,8.0,10.0,54,0.00,,,0.05,,2013-02-23 00:11:00,
2013-02-22 17:21:00,31.0,16.0,29.84,West,270,8.0,10.0,54,0.00,,,0.05,,2013-02-23 00:21:00,
2013-02-22 17:31:00,31.0,18.0,29.84,West,270,6.0,7.0,57,0.00,,,0.05,,2013-02-23 00:31:00,
2013-02-22 17:41:00,31.0,18.0,29.84,West,270,6.0,7.0,57,0.00,,,0.05,,2013-02-23 00:41:00,
2013-02-22 17:51:00,29.0,16.0,29.84,West,270,4.0,6.0,59,0.00,,,0.05,,2013-02-23 00:51:00,
2013-02-22 18:01:00,28.0,16.0,29.84,West,270,2.0,2.0,61,0.00,,,0.05,,2013-02-23 01:01:00,
2013-02-22 18:11:00,26.0,15.0,29.84,SSW,202,2.0,2.0,63,0.00,,,0.05,,2013-02-23 01:11:00,
2013-02-22 18:21:00,26.0,15.0,29.84,SSW,202,2.0,2.0,63,0.00,,,0.05,,2013-02-23 01:21:00,
2013-02-22 18:31:00,24.0,17.0,29.83,SSE,157,2.0,2.0,75,0.00,,,0.05,,2013-02-23 01:31:00,
2013-02-22 18:41:00,24.0,17.0,29.83,SSE,157,2.0,2.0,75,0.00,,,0.05,,2013-02-23 01:41:00,
2013-02-22 18:51:00,23.0,17.0,29.83,SSE,157,2.0,2.0,76,0.00,,,0.05,,2013-02-23 01:51:00,
2013-02-22 19:01:00,23.0,18.0,29.84,South,180,4.0,5.0,81,0.00,,,0.05,,2013-02-23 02:01:00,
2013-02-22 19:11:00,23.0,17.0,29.85,South,180,3.0,4.0,76,0.00,,,0.05,,2013-02-23 02:11:00,
2013-02-22 19:21:00,23.0,17.0,29.85,South,180,3.0,4.0,76,0.00,,,0.05,,2013-02-23 02:21:00,
2013-02-22 19:31:00,23.0,16.0,29.85,South,180,3.0,4.0,75,0.00,,,0.05,,2013-02-23 02:31:00,
2013-02-22 19:41:00,23.0,16.0,29.85,South,180,3.0,4.0,75,0.00,,,0.05,,2013-02-23 02:41:00,
2013-02-22 19:52:00,23.0,16.0,29.85,South,180,2.0,4.0,73,0.00,,,0.05,,2013-02-23 02:52:00,
2013-02-22 20:01:00,21.0,14.0,29.85,ESE,112,3.0,4.0,73,0.00,,,0.05,,2013-02-23 03:01:00,
2013-02-22 20:11:00,20.0,13.0,29.85,South,180,2.0,3.0,74,0.00,,,0.05,,2013-02-23 03:11:00,
2013-02-22 20:21:00,20.0,13.0,29.85,South,180,2.0,3.0,74,0.00,,,0.05,,2013-02-23 03:21:00,
2013-02-22 20:31:00,19.0,13.0,29.85,South,180,2.0,2.0,76,0.00,,,0.05,,2013-02-23 03:31:00,
2013-02-22 20:41:00,19.0,13.0,29.85,South,180,2.0,2.0,76,0.00,,,0.05,,2013-02-23 03:41:00,
2013-02-22 20:51:00,18.0,12.0,29.85,SSE,157,3.0,4.0,77,0.00,,,0.05,,2013-02-23 03:51:00,
2013-02-22 21:01:00,18.0,12.0,29.85,SSE,157,1.0,2.0,76,0.00,,,0.05,,2013-02-23 04:01:00,
2013-02-22 21:11:00,17.0,11.0,29.84,SSE,157,1.0,2.0,76,0.00,,,0.05,,2013-02-23 04:11:00,
2013-02-22 21:21:00,17.0,11.0,29.84,SSE,157,1.0,2.0,76,0.00,,,0.05,,2013-02-23 04:21:00,
2013-02-22 21:31:00,16.0,10.0,29.84,SSE,157,2.0,2.0,77,0.00,,,0.05,,2013-02-23 04:31:00,
2013-02-22 21:41:00,16.0,10.0,29.84,SSE,157,2.0,2.0,77,0.00,,,0.05,,2013-02-23 04:41:00,
2013-02-22 21:51:00,13.0,9.0,29.85,ESE,112,2.0,3.0,82,0.00,,,0.05,,2013-02-23 04:51:00,
2013-02-22 22:01:00,13.0,9.0,29.85,ESE,112,4.0,4.0,82,0.00,,,0.05,,2013-02-23 05:01:00,
2013-02-22 22:11:00,13.0,9.0,29.85,ESE,112,4.0,4.0,82,0.00,,,0.05,,2013-02-23 05:11:00,
2013-02-22 22:22:00,14.0,8.0,29.85,ESE,112,4.0,5.0,78,0.00,,,0.05,,2013-02-23 05:22:00,
2013-02-22 22:32:00,14.0,8.0,29.85,ESE,112,4.0,6.0,78,0.00,,,0.05,,2013-02-23 05:32:00,
2013-02-22 22:41:00,14.0,8.0,29.85,ESE,112,4.0,6.0,78,0.00,,,0.05,,2013-02-23 05:41:00,
2013-02-22 22:52:00,13.0,8.0,29.85,ESE,112,4.0,6.0,79,0.00,,,0.05,,2013-02-23 05:52:00,
2013-02-22 23:01:00,13.0,8.0,29.85,ESE,112,4.0,5.0,80,0.00,,,0.05,,2013-02-23 06:01:00,
2013-02-22 23:11:00,13.0,8.0,29.85,ESE,112,4.0,5.0,80,0.00,,,0.05,,2013-02-23 06:11:00,
2013-02-22 23:21:00,13.0,8.0,29.85,ESE,112,4.0,6.0,79,0.00,,,0.05,,2013-02-23 06:21:00,
2013-02-22 23:31:00,13.0,7.0,29.84,ESE,112,5.0,7.0,77,0.00,,,0.05,,2013-02-23 06:31:00,
2013-02-22 23:41:00,13.0,7.0,29.84,ESE,112,5.0,7.0,77,0.00,,,0.05,,2013-02-23 06:41:00,
2013-02-22 23:51:00,15.0,8.0,29.84,SE,135,3.0,4.0,73,0.00,,,0.05,,2013-02-23 06:51:00,